createdAt,value
2022-08-07T00:00:26.047Z,17.50
2022-08-07T00:02:53.718Z,17.40
2022-08-07T00:05:23.646Z,17.40
2022-08-07T00:08:00.190Z,17.40
2022-08-07T00:10:31.411Z,17.40
2022-08-07T00:13:17.380Z,17.30
2022-08-07T00:15:51.420Z,17.30
2022-08-07T00:18:25.659Z,17.30
2022-08-07T00:21:08.250Z,17.30
2022-08-07T00:23:52.698Z,17.20
2022-08-07T00:26:58.508Z,17.20
2022-08-07T00:29:06.565Z,17.20
2022-08-07T00:31:37.934Z,17.20
2022-08-07T00:34:09.178Z,17.10
2022-08-07T00:36:38.428Z,17.20
2022-08-07T00:39:05.428Z,17.10
2022-08-07T00:41:37.294Z,17.10
2022-08-07T00:44:12.327Z,17.10
2022-08-07T00:46:42.138Z,17.10
2022-08-07T00:49:10.509Z,17.00
2022-08-07T00:51:58.320Z,17.00
2022-08-07T00:54:25.746Z,16.90
2022-08-07T00:56:53.284Z,17.00
2022-08-07T00:59:35.377Z,16.90
2022-08-07T01:02:08.794Z,16.90
2022-08-07T01:04:43.242Z,16.90
2022-08-07T01:07:11.616Z,16.80
2022-08-07T01:10:04.453Z,16.80
2022-08-07T01:12:30.305Z,16.80
2022-08-07T01:15:03.598Z,16.80
2022-08-07T01:17:32.304Z,16.80
2022-08-07T01:20:16.859Z,16.70
2022-08-07T01:22:47.001Z,16.70
2022-08-07T01:25:53.807Z,16.70
2022-08-07T01:28:16.077Z,16.70
2022-08-07T01:30:44.672Z,16.70
2022-08-07T01:33:12.003Z,16.60
2022-08-07T01:35:53.239Z,16.60
2022-08-07T01:38:24.851Z,16.60
2022-08-07T01:40:59.444Z,16.60
2022-08-07T01:43:34.633Z,16.60
2022-08-07T01:46:05.682Z,16.50
2022-08-07T01:48:35.962Z,16.50
2022-08-07T01:51:58.656Z,16.50
2022-08-07T01:54:12.540Z,16.40
2022-08-07T01:57:03.348Z,16.40
2022-08-07T01:59:42.204Z,16.30
2022-08-07T02:03:11.365Z,16.30
2022-08-07T02:05:43.486Z,16.30
2022-08-07T02:08:10.681Z,16.30
2022-08-07T02:10:43.871Z,16.30
2022-08-07T02:13:17.280Z,16.20
2022-08-07T02:15:47.026Z,16.20
2022-08-07T02:18:15.658Z,16.20
2022-08-07T02:20:48.686Z,16.20
2022-08-07T02:23:23.802Z,16.10
2022-08-07T02:26:30.627Z,16.10
2022-08-07T02:28:42.017Z,16.10
2022-08-07T02:31:18.890Z,16.10
2022-08-07T02:34:03.810Z,16.10
2022-08-07T02:36:39.582Z,16.10
2022-08-07T02:39:17.332Z,16.10
2022-08-07T02:41:56.966Z,16.00
2022-08-07T02:44:27.594Z,16.00
2022-08-07T02:47:05.500Z,16.00
2022-08-07T02:49:59.103Z,16.00
2022-08-07T02:52:37.328Z,16.00
2022-08-07T02:55:28.047Z,15.90
2022-08-07T02:58:06.941Z,15.90
2022-08-07T03:00:39.216Z,15.90
2022-08-07T03:03:13.565Z,15.80
2022-08-07T03:05:50.261Z,15.80
2022-08-07T03:08:29.154Z,15.80
2022-08-07T03:10:57.760Z,15.80
2022-08-07T03:13:25.577Z,15.80
2022-08-07T03:15:56.568Z,15.80
2022-08-07T03:18:34.196Z,15.80
2022-08-07T03:21:08.473Z,15.80
2022-08-07T03:24:20.084Z,15.70
2022-08-07T03:26:31.325Z,15.70
2022-08-07T03:29:02.421Z,15.70
2022-08-07T03:31:43.451Z,15.70
2022-08-07T03:34:18.739Z,15.70
2022-08-07T03:36:52.710Z,15.70
2022-08-07T03:39:59.159Z,15.70
2022-08-07T03:42:08.410Z,15.70
2022-08-07T03:44:37.426Z,15.60
2022-08-07T03:47:10.930Z,15.60
2022-08-07T03:49:48.056Z,15.60
2022-08-07T03:52:26.521Z,15.60
2022-08-07T03:55:07.034Z,15.60
2022-08-07T03:58:33.158Z,15.60
2022-08-07T04:00:30.279Z,15.50
2022-08-07T04:03:03.905Z,15.50
2022-08-07T04:05:40.231Z,15.50
2022-08-07T04:08:16.251Z,15.50
2022-08-07T04:10:54.129Z,15.50
2022-08-07T04:14:33.227Z,15.50
2022-08-07T04:16:31.039Z,15.50
2022-08-07T04:19:04.303Z,15.40
2022-08-07T04:21:58.710Z,15.40
2022-08-07T04:24:33.932Z,15.40
2022-08-07T04:27:03.094Z,15.40
2022-08-07T04:29:57.161Z,15.40
2022-08-07T04:32:18.900Z,15.40
2022-08-07T04:35:07.162Z,15.40
2022-08-07T04:37:52.882Z,15.40
2022-08-07T04:40:29.543Z,15.40
2022-08-07T04:43:02.056Z,15.40
2022-08-07T04:46:01.550Z,15.40
2022-08-07T04:48:45.673Z,15.40
2022-08-07T04:52:08.890Z,15.40
2022-08-07T04:55:01.911Z,15.40
2022-08-07T04:58:49.611Z,15.40
2022-08-07T05:01:45.101Z,15.40
2022-08-07T05:04:20.263Z,15.40
2022-08-07T05:07:19.706Z,15.40
2022-08-07T05:10:11.140Z,15.40
2022-08-07T05:12:58.395Z,15.50
2022-08-07T05:15:37.907Z,15.50
2022-08-07T05:18:21.457Z,15.50
2022-08-07T05:20:54.711Z,15.60
2022-08-07T05:23:29.863Z,15.60
2022-08-07T05:26:13.242Z,15.60
2022-08-07T05:28:50.203Z,15.60
2022-08-07T05:31:20.646Z,15.70
2022-08-07T05:33:51.368Z,15.70
2022-08-07T05:36:32.413Z,15.70
2022-08-07T05:40:05.012Z,15.80
2022-08-07T05:42:01.690Z,15.80
2022-08-07T05:44:34.348Z,15.90
2022-08-07T05:47:38.646Z,15.90
2022-08-07T05:49:51.652Z,15.90
2022-08-07T05:52:20.362Z,16.00
2022-08-07T05:54:55.872Z,16.00
2022-08-07T05:57:30.282Z,16.00
2022-08-07T06:00:02.002Z,16.10
2022-08-07T06:02:33.379Z,16.20
2022-08-07T06:05:07.575Z,16.20
2022-08-07T06:08:29.803Z,16.20
2022-08-07T06:10:25.163Z,16.30
2022-08-07T06:12:52.322Z,16.30
2022-08-07T06:15:20.474Z,16.40
2022-08-07T06:17:53.527Z,16.40
2022-08-07T06:20:49.997Z,16.50
2022-08-07T06:23:46.724Z,17.00
2022-08-07T06:26:00.985Z,17.80
2022-08-07T06:28:28.996Z,18.80
2022-08-07T06:30:58.171Z,19.70
2022-08-07T06:33:26.426Z,20.50
2022-08-07T06:36:13.238Z,21.30
2022-08-07T06:38:51.433Z,22.10
2022-08-07T06:42:02.541Z,23.00
2022-08-07T06:44:34.035Z,23.70
2022-08-07T06:47:12.423Z,24.20
2022-08-07T06:49:51.569Z,24.80
2022-08-07T06:52:38.471Z,25.30
2022-08-07T06:55:33.378Z,25.40
2022-08-07T06:58:10.620Z,25.80
2022-08-07T07:00:42.378Z,26.00
2022-08-07T07:03:13.889Z,25.90
2022-08-07T07:06:02.652Z,26.20
2022-08-07T07:08:33.342Z,26.70
2022-08-07T07:11:13.544Z,27.10
2022-08-07T07:13:58.760Z,27.60
2022-08-07T07:16:45.373Z,28.10
2022-08-07T07:19:55.204Z,28.50
2022-08-07T07:22:35.627Z,29.10
2022-08-07T07:26:31.041Z,29.50
2022-08-07T07:28:42.560Z,29.70
2022-08-07T07:31:44.276Z,29.80
2022-08-07T07:34:20.032Z,29.80
2022-08-07T07:36:53.959Z,30.10
2022-08-07T07:39:23.354Z,30.50
2022-08-07T07:42:09.033Z,30.70
2022-08-07T07:44:45.609Z,30.90
2022-08-07T07:47:22.849Z,31.20
2022-08-07T07:50:33.398Z,31.50
2022-08-07T07:52:44.223Z,31.80
2022-08-07T07:55:15.905Z,32.00
2022-08-07T07:57:53.690Z,32.30
2022-08-07T08:00:31.213Z,32.30
2022-08-07T08:03:16.331Z,32.30
2022-08-07T08:05:54.749Z,32.30
2022-08-07T08:08:35.037Z,32.30
2022-08-07T08:11:16.090Z,32.50
2022-08-07T08:13:54.831Z,32.60
2022-08-07T08:16:35.170Z,32.80
2022-08-07T08:19:17.733Z,32.90
2022-08-07T08:22:12.419Z,32.90
2022-08-07T08:25:18.885Z,33.00
2022-08-07T08:28:01.841Z,32.90
2022-08-07T08:30:34.810Z,32.90
2022-08-07T08:33:10.343Z,32.90
2022-08-07T08:35:50.989Z,32.70
2022-08-07T08:38:29.375Z,32.30
2022-08-07T08:41:57.286Z,32.10
2022-08-07T08:44:44.501Z,31.90
2022-08-07T08:47:29.662Z,31.80
2022-08-07T08:50:28.323Z,31.50
2022-08-07T08:53:33.980Z,31.40
2022-08-07T08:56:12.540Z,30.70
2022-08-07T08:59:42.285Z,30.40
2022-08-07T09:03:08.322Z,30.30
2022-08-07T09:05:50.621Z,30.10
2022-08-07T09:08:46.870Z,30.00
2022-08-07T09:11:24.267Z,29.60
2022-08-07T09:14:13.399Z,29.50
2022-08-07T09:16:47.623Z,29.40
2022-08-07T09:19:56.648Z,29.30
2022-08-07T09:24:30.858Z,29.40
2022-08-07T09:25:53.465Z,29.10
2022-08-07T09:30:04.532Z,28.90
2022-08-07T09:32:17.201Z,28.50
2022-08-07T09:36:04.845Z,28.60
2022-08-07T09:38:19.823Z,28.60
2022-08-07T09:41:17.667Z,28.60
2022-08-07T09:44:06.563Z,28.60
2022-08-07T09:47:50.579Z,28.60
2022-08-07T09:50:02.685Z,28.40
2022-08-07T09:52:53.795Z,28.30
2022-08-07T09:56:03.221Z,28.10
2022-08-07T09:59:44.732Z,28.10
2022-08-07T10:02:35.214Z,28.20
2022-08-07T10:05:59.066Z,28.10
2022-08-07T10:08:35.039Z,28.10
2022-08-07T10:12:03.336Z,28.10
2022-08-07T10:15:15.171Z,28.10
2022-08-07T10:18:26.451Z,28.10
2022-08-07T10:22:14.137Z,28.20
2022-08-07T10:25:16.180Z,28.20
2022-08-07T10:28:17.062Z,28.20
2022-08-07T10:31:11.143Z,28.20
2022-08-07T10:34:06.017Z,28.30
2022-08-07T10:37:19.096Z,28.40
2022-08-07T10:40:14.798Z,28.40
2022-08-07T10:43:12.766Z,28.50
2022-08-07T10:45:57.677Z,28.50
2022-08-07T10:48:34.951Z,28.50
2022-08-07T10:51:38.856Z,28.40
2022-08-07T10:54:22.445Z,28.40
2022-08-07T10:57:34.500Z,28.30
2022-08-07T11:00:36.965Z,28.20
2022-08-07T11:03:23.161Z,28.20
2022-08-07T11:06:21.814Z,28.30
2022-08-07T11:09:03.607Z,28.40
2022-08-07T11:11:59.149Z,28.50
2022-08-07T11:14:57.260Z,28.50
2022-08-07T11:17:43.528Z,28.60
2022-08-07T11:20:31.354Z,28.70
2022-08-07T11:23:30.874Z,28.70
2022-08-07T11:26:50.242Z,28.60
2022-08-07T11:29:41.219Z,28.70
2022-08-07T11:32:54.677Z,28.60
2022-08-07T11:35:32.872Z,28.50
2022-08-07T11:38:57.129Z,28.50
2022-08-07T11:42:01.571Z,28.50
2022-08-07T11:44:51.934Z,28.60
2022-08-07T11:47:59.114Z,28.70
2022-08-07T11:51:00.102Z,28.50
2022-08-07T11:54:12.571Z,28.50
2022-08-07T11:57:17.039Z,28.60
2022-08-07T12:00:19.280Z,28.70
2022-08-07T12:02:53.522Z,28.80
2022-08-07T12:06:36.523Z,28.90
2022-08-07T12:09:00.471Z,29.00
2022-08-07T12:11:43.363Z,29.20
2022-08-07T12:14:31.719Z,29.20
2022-08-07T12:17:05.407Z,29.30
2022-08-07T12:19:56.458Z,29.40
2022-08-07T12:22:56.323Z,29.30
2022-08-07T12:26:29.192Z,29.30
2022-08-07T12:29:37.114Z,29.40
2022-08-07T12:32:34.991Z,29.40
2022-08-07T12:35:11.838Z,29.40
2022-08-07T12:38:09.623Z,29.50
2022-08-07T12:40:50.301Z,29.50
2022-08-07T12:44:01.324Z,29.50
2022-08-07T12:46:41.577Z,29.60
2022-08-07T12:49:48.639Z,29.60
2022-08-07T12:52:35.628Z,29.60
2022-08-07T12:55:40.707Z,29.60
2022-08-07T12:58:13.115Z,29.70
2022-08-07T13:01:00.946Z,29.70
2022-08-07T13:04:05.110Z,29.70
2022-08-07T13:08:11.529Z,29.80
2022-08-07T13:10:39.857Z,29.80
2022-08-07T13:13:47.150Z,30.00
2022-08-07T13:16:52.507Z,29.90
2022-08-07T13:19:46.297Z,30.00
2022-08-07T13:22:28.355Z,30.00
2022-08-07T13:25:08.420Z,30.00
2022-08-07T13:28:13.849Z,30.10
2022-08-07T13:30:43.460Z,30.10
2022-08-07T13:34:31.778Z,30.20
2022-08-07T13:37:10.835Z,30.30
2022-08-07T13:40:36.238Z,30.20
2022-08-07T13:42:50.697Z,30.20
2022-08-07T13:46:11.183Z,30.20
2022-08-07T13:48:27.952Z,30.20
2022-08-07T13:51:01.923Z,30.20
2022-08-07T13:54:00.129Z,30.20
2022-08-07T13:56:35.720Z,30.10
2022-08-07T13:59:20.468Z,30.10
2022-08-07T14:02:12.828Z,30.20
2022-08-07T14:04:55.281Z,30.30
2022-08-07T14:07:31.870Z,30.30
2022-08-07T14:10:16.523Z,30.30
2022-08-07T14:13:03.795Z,30.20
2022-08-07T14:15:44.820Z,30.20
2022-08-07T14:18:30.439Z,30.20
2022-08-07T14:21:20.851Z,30.30
2022-08-07T14:24:08.819Z,30.30
2022-08-07T14:26:50.668Z,30.50
2022-08-07T14:30:08.043Z,30.50
2022-08-07T14:32:15.118Z,30.50
2022-08-07T14:34:47.034Z,30.50
2022-08-07T14:37:17.913Z,30.50
2022-08-07T14:40:15.655Z,30.30
2022-08-07T14:43:55.380Z,30.20
2022-08-07T14:51:16.141Z,29.80
2022-08-07T14:54:08.558Z,29.70
2022-08-07T14:56:33.729Z,29.60
2022-08-07T14:59:13.616Z,29.40
2022-08-07T15:02:00.777Z,29.30
2022-08-07T15:04:30.309Z,29.10
2022-08-07T15:07:03.127Z,29.00
2022-08-07T15:09:59.810Z,28.90
2022-08-07T15:12:37.023Z,28.80
2022-08-07T15:15:21.193Z,28.60
2022-08-07T15:18:02.722Z,28.60
2022-08-07T15:20:54.943Z,28.50
2022-08-07T15:26:43.194Z,28.20
2022-08-07T15:30:04.879Z,28.10
2022-08-07T15:32:04.987Z,28.00
2022-08-07T15:36:02.432Z,28.00
2022-08-07T15:41:23.954Z,27.90
2022-08-07T15:44:03.838Z,27.80
2022-08-07T15:46:38.601Z,27.70
2022-08-07T15:49:19.323Z,27.70
2022-08-07T15:54:41.805Z,27.60
2022-08-07T15:57:27.968Z,27.60
2022-08-07T16:00:31.679Z,27.60
2022-08-07T16:02:59.147Z,27.60
2022-08-07T16:05:31.277Z,27.50
2022-08-07T16:08:30.889Z,27.50
2022-08-07T16:11:26.355Z,27.50
2022-08-07T16:14:11.958Z,27.50
2022-08-07T16:18:02.496Z,27.40
2022-08-07T16:20:33.127Z,27.50
2022-08-07T16:23:53.475Z,27.40
2022-08-07T16:26:30.938Z,27.50
2022-08-07T16:30:11.776Z,27.30
2022-08-07T16:34:03.450Z,27.20
2022-08-07T16:36:20.161Z,27.10
2022-08-07T16:39:20.421Z,26.90
2022-08-07T16:42:15.837Z,26.90
2022-08-07T16:46:40.658Z,26.90
2022-08-07T16:50:20.256Z,26.90
2022-08-07T16:52:55.729Z,26.90
2022-08-07T16:56:11.122Z,26.90
2022-08-07T16:59:14.265Z,26.80
2022-08-07T17:01:55.603Z,26.60
2022-08-07T17:06:02.427Z,26.40
2022-08-07T17:08:18.459Z,26.40
2022-08-07T17:10:57.437Z,26.20
2022-08-07T17:13:41.122Z,26.20
2022-08-07T17:17:06.856Z,26.00
2022-08-07T17:20:02.884Z,26.00
2022-08-07T17:22:42.754Z,26.00
2022-08-07T17:25:51.194Z,25.90
2022-08-07T17:28:32.330Z,25.90
2022-08-07T17:31:16.353Z,25.70
2022-08-07T17:34:17.969Z,25.70
2022-08-07T17:36:58.096Z,25.60
2022-08-07T17:40:05.465Z,25.50
2022-08-07T17:42:59.383Z,25.40
2022-08-07T17:45:39.515Z,25.40
2022-08-07T17:48:30.867Z,25.30
2022-08-07T17:51:49.246Z,25.20
2022-08-07T17:54:54.362Z,25.10
2022-08-07T17:57:58.981Z,24.90
2022-08-07T18:00:34.563Z,24.80
2022-08-07T18:04:04.461Z,24.70
2022-08-07T18:06:37.146Z,24.70
2022-08-07T18:09:06.594Z,24.60
2022-08-07T18:12:07.190Z,24.50
2022-08-07T18:14:50.112Z,24.50
2022-08-07T18:18:36.667Z,24.30
2022-08-07T18:21:09.617Z,24.30
2022-08-07T18:23:50.735Z,24.20
2022-08-07T18:26:57.967Z,24.10
2022-08-07T18:30:07.140Z,24.00
2022-08-07T18:32:36.285Z,23.90
2022-08-07T18:35:51.924Z,23.80
2022-08-07T18:38:55.823Z,23.80
2022-08-07T18:41:57.999Z,23.70
2022-08-07T18:45:43.112Z,23.60
2022-08-07T18:48:10.268Z,23.50
2022-08-07T18:51:16.995Z,23.50
2022-08-07T18:54:32.411Z,23.40
2022-08-07T18:57:30.712Z,23.30
2022-08-07T19:00:34.402Z,23.20
2022-08-07T19:03:36.129Z,23.20
2022-08-07T19:06:16.512Z,23.10
2022-08-07T19:08:55.831Z,23.10
2022-08-07T19:12:04.095Z,23.00
2022-08-07T19:16:02.389Z,22.90
2022-08-07T19:18:34.217Z,22.80
2022-08-07T19:21:43.841Z,22.70
2022-08-07T19:24:30.507Z,22.70
2022-08-07T19:28:57.061Z,22.60
2022-08-07T19:31:02.073Z,22.60
2022-08-07T19:32:55.182Z,22.40
2022-08-07T19:35:33.349Z,22.40
2022-08-07T19:38:15.874Z,22.30
2022-08-07T19:40:49.607Z,22.30
2022-08-07T19:43:43.758Z,22.20
2022-08-07T19:46:19.095Z,22.20
2022-08-07T19:49:00.271Z,22.10
2022-08-07T19:51:51.830Z,22.10
2022-08-07T19:54:33.414Z,22.00
2022-08-07T19:58:02.865Z,22.00
2022-08-07T19:59:59.022Z,21.90
2022-08-07T20:02:35.058Z,21.90
2022-08-07T20:05:13.056Z,21.80
2022-08-07T20:07:47.811Z,21.80
2022-08-07T20:10:36.797Z,21.70
2022-08-07T20:13:27.313Z,21.60
2022-08-07T20:16:03.072Z,21.60
2022-08-07T20:18:34.737Z,21.50
2022-08-07T20:21:20.900Z,21.50
2022-08-07T20:24:07.484Z,21.40
2022-08-07T20:26:46.180Z,21.40
2022-08-07T20:29:47.792Z,21.30
2022-08-07T20:32:22.182Z,21.30
2022-08-07T20:34:54.144Z,21.20
2022-08-07T20:37:33.791Z,21.10
2022-08-07T20:40:05.065Z,21.10
2022-08-07T20:42:56.607Z,21.00
2022-08-07T20:46:24.206Z,21.00
2022-08-07T20:48:28.407Z,20.90
2022-08-07T20:51:03.419Z,20.90
2022-08-07T20:54:04.850Z,20.90
2022-08-07T20:56:30.774Z,20.80
2022-08-07T20:59:05.387Z,20.70
2022-08-07T21:01:45.245Z,20.70
2022-08-07T21:04:23.646Z,20.60
2022-08-07T21:06:55.189Z,20.60
2022-08-07T21:09:51.935Z,20.50
2022-08-07T21:12:29.208Z,20.50
2022-08-07T21:15:03.915Z,20.40
2022-08-07T21:18:25.507Z,20.30
2022-08-07T21:20:29.466Z,20.30
2022-08-07T21:23:08.227Z,20.20
2022-08-07T21:26:01.476Z,20.20
2022-08-07T21:28:54.647Z,20.20
2022-08-07T21:32:47.200Z,20.10
2022-08-07T21:35:02.605Z,20.10
2022-08-07T21:37:57.871Z,20.10
2022-08-07T21:40:47.563Z,20.00
2022-08-07T21:43:36.644Z,20.00
2022-08-07T21:46:49.615Z,19.90
2022-08-07T21:50:00.792Z,19.90
2022-08-07T21:53:17.660Z,19.90
2022-08-07T21:56:16.885Z,19.80
2022-08-07T21:59:09.823Z,19.70
2022-08-07T22:02:17.998Z,19.70
2022-08-07T22:04:53.765Z,19.60
2022-08-07T22:07:31.593Z,19.60
2022-08-07T22:10:08.024Z,19.60
2022-08-07T22:13:09.276Z,19.50
2022-08-07T22:16:39.713Z,19.50
2022-08-07T22:19:13.007Z,19.40
2022-08-07T22:22:02.043Z,19.40
2022-08-07T22:24:50.419Z,19.40
2022-08-07T22:28:07.488Z,19.40
2022-08-07T22:30:19.081Z,19.40
2022-08-07T22:32:51.768Z,19.40
2022-08-07T22:35:18.972Z,19.30
2022-08-07T22:38:27.637Z,19.20
2022-08-07T22:41:16.290Z,19.20
2022-08-07T22:43:50.341Z,19.20
2022-08-07T22:47:04.401Z,19.20
2022-08-07T22:50:07.105Z,19.20
2022-08-07T22:53:15.155Z,19.10
2022-08-07T22:56:15.057Z,19.10
2022-08-07T22:59:05.063Z,19.10
2022-08-07T23:02:03.376Z,19.10
2022-08-07T23:04:57.915Z,19.00
2022-08-07T23:08:30.529Z,19.00
2022-08-07T23:11:15.646Z,18.90
2022-08-07T23:14:20.361Z,19.00
2022-08-07T23:17:15.684Z,18.90
2022-08-07T23:20:51.915Z,18.80
2022-08-07T23:24:06.922Z,18.80
2022-08-07T23:26:50.502Z,18.80
2022-08-07T23:30:37.138Z,18.70
2022-08-07T23:34:35.391Z,18.70
2022-08-07T23:36:17.435Z,18.60
2022-08-07T23:39:08.635Z,18.60
2022-08-07T23:42:15.691Z,18.50
2022-08-07T23:45:15.282Z,18.50
2022-08-07T23:48:56.138Z,18.50
2022-08-07T23:53:00.427Z,18.50
2022-08-07T23:54:58.030Z,18.40
2022-08-07T23:57:35.990Z,18.40
